< < Back
Terminal Aerodrome Forecast


Current Version              Previous Versions:   1  2  3  4  5  6  7  8  9  

Terminal Aerodrome Forecast

854
FTUS42 KFFC 222300
TAFFTY
TAF
KFTY 222323Z 2300/2324 33004KT P6SM SKC
     FM230200 00000KT P6SM SKC
     FM231600 32004KT P6SM SKC=

Latest METAR

398
SAUS70 KWBC 231500 RRD
MTRFTY
METAR KFTY 231453Z VRB04KT 10SM CLR 12/07 A3015 RMK AO2 SLP207 T01220067
50000


USA.gov is the U.S. government's official web portal to all federal, state and local government web resources and services.